Time;durP1;ratioP1;P1;durP2;ratioP2;P2;SDS_P1;SDS_P2;PMS_P1;PMS_P2;Temp;Humidity;BMP_temperature;BMP_pressure;BME280_temperature;BME280_humidity;BME280_pressure;Samples;Min_cycle;Max_cycle;Signal;HPM_P1;HPM_P2
2022/03/08 00:01:20;;;;;;;3.60;2.97;;;17.70;22.00;20.20;94038.00;;;;10369490;28;45445;-60
2022/03/08 00:06:21;;;;;;;4.40;2.92;;;17.70;22.10;20.20;94044.00;;;;10368577;28;45431;-61
2022/03/08 00:11:21;;;;;;;4.20;2.95;;;17.70;22.10;20.10;94033.00;;;;10354288;28;45245;-59
2022/03/08 00:16:22;;;;;;;3.28;2.55;;;17.70;22.00;20.10;94035.00;;;;10353610;28;45582;-60
2022/03/08 00:21:23;;;;;;;3.88;3.03;;;17.70;22.10;20.10;94035.00;;;;10352861;28;45388;-58
2022/03/08 00:26:24;;;;;;;3.50;2.80;;;17.70;22.10;20.10;94030.00;;;;10366720;28;46529;-61
2022/03/08 00:31:24;;;;;;;3.55;2.65;;;17.70;22.10;20.10;94032.00;;;;10368658;28;45238;-60
2022/03/08 00:36:25;;;;;;;3.10;2.60;;;17.70;22.10;20.10;94024.00;;;;10352207;28;45222;-58
2022/03/08 00:41:26;;;;;;;3.28;2.47;;;17.70;22.10;20.10;94032.00;;;;10367742;28;45313;-60
2022/03/08 00:46:27;;;;;;;3.15;2.75;;;17.70;22.10;20.10;94024.00;;;;10367084;28;46894;-60
2022/03/08 00:51:28;;;;;;;3.15;2.60;;;17.70;22.10;20.10;94005.00;;;;10370437;28;46179;-60
2022/03/08 00:56:29;;;;;;;3.00;2.70;;;17.70;22.10;20.10;94001.00;;;;10358448;28;46967;-60
2022/03/08 01:01:30;;;;;;;3.45;2.58;;;17.70;22.10;20.10;93994.00;;;;10356523;28;47268;-57
2022/03/08 01:06:31;;;;;;;3.88;2.72;;;17.70;22.10;20.10;94005.00;;;;10374589;28;45126;-57
2022/03/08 01:11:32;;;;;;;3.20;2.60;;;17.70;22.10;20.10;93975.00;;;;10375266;28;45412;-59
2022/03/08 01:16:36;;;;;;;3.83;2.83;;;17.70;22.00;20.10;93969.00;;;;10358643;28;45444;-61
2022/03/08 01:21:37;;;;;;;3.30;2.38;;;17.70;22.10;20.10;93968.00;;;;10359016;28;45233;-61
2022/03/08 01:26:38;;;;;;;3.38;2.70;;;17.70;22.10;20.10;93989.00;;;;10358086;28;46259;-59
2022/03/08 01:31:39;;;;;;;3.80;2.75;;;17.70;22.00;20.10;93986.00;;;;10373507;28;45499;-60
2022/03/08 01:36:41;;;;;;;3.00;2.70;;;17.70;22.10;20.10;93984.00;;;;10373221;28;45131;-59
2022/03/08 01:41:41;;;;;;;3.13;2.50;;;17.70;22.10;20.10;93971.00;;;;10370901;28;46771;-60
2022/03/08 01:46:42;;;;;;;3.72;2.50;;;17.70;22.00;20.10;93979.00;;;;10372608;28;46245;-60
2022/03/08 01:51:43;;;;;;;3.40;2.80;;;17.70;22.00;20.10;93983.00;;;;10356843;28;47324;-60
2022/03/08 01:56:44;;;;;;;5.10;3.05;;;17.70;22.00;20.10;93962.00;;;;10372198;28;46497;-60
2022/03/08 02:01:45;;;;;;;3.10;2.65;;;17.70;22.00;20.10;93953.00;;;;10365383;28;45356;-61
2022/03/08 02:06:45;;;;;;;3.92;2.80;;;17.70;22.00;20.10;93957.00;;;;10354603;28;46451;-60
2022/03/08 02:11:47;;;;;;;3.55;2.92;;;17.60;22.00;20.10;93947.00;;;;10371935;28;45273;-60
2022/03/08 02:16:48;;;;;;;3.70;2.60;;;17.70;22.00;20.10;93941.00;;;;10371386;28;45165;-60
2022/03/08 02:21:50;;;;;;;3.50;2.83;;;17.60;21.90;20.10;93943.00;;;;10370994;28;45471;-60
2022/03/08 02:26:51;;;;;;;3.90;2.97;;;17.60;21.90;20.10;93924.00;;;;10370525;28;46213;-60
2022/03/08 02:31:52;;;;;;;3.63;3.20;;;17.60;22.00;20.10;93935.00;;;;10354784;28;47158;-60
2022/03/08 02:37:21;;;;;;;4.22;3.10;;;17.70;21.90;20.10;93905.00;;;;10370382;28;46423;-60
2022/03/08 02:42:21;;;;;;;4.65;3.13;;;17.60;21.90;20.10;93922.00;;;;10369700;28;45329;-59
2022/03/08 02:47:22;;;;;;;3.83;3.05;;;17.60;21.80;20.10;93925.00;;;;10354227;28;45296;-60
2022/03/08 02:52:23;;;;;;;4.93;3.72;;;17.60;21.80;20.10;93919.00;;;;10354011;28;46360;-60
2022/03/08 02:57:23;;;;;;;4.18;3.30;;;17.70;21.90;20.10;93921.00;;;;10354688;28;45230;-61
2022/03/08 03:02:24;;;;;;;3.90;3.15;;;17.60;21.80;20.10;93909.00;;;;10369597;28;45369;-60
2022/03/08 03:07:25;;;;;;;4.65;3.40;;;17.70;22.20;20.00;93904.00;;;;10369438;28;45451;-60
2022/03/08 03:12:26;;;;;;;3.72;2.85;;;17.60;21.80;20.10;93915.00;;;;10352545;28;47757;-60
2022/03/08 03:17:27;;;;;;;3.45;2.78;;;17.60;21.70;20.10;93909.00;;;;10368769;28;45418;-59
2022/03/08 03:22:27;;;;;;;3.58;2.90;;;17.60;21.70;20.00;93899.00;;;;10351650;28;46977;-60
2022/03/08 03:27:28;;;;;;;3.75;3.00;;;17.60;21.80;20.00;93906.00;;;;10354190;28;45223;-60
2022/03/08 03:32:29;;;;;;;3.63;2.95;;;17.60;21.80;20.10;93907.00;;;;10354457;28;45433;-60
2022/03/08 03:37:30;;;;;;;4.90;3.15;;;17.60;21.60;20.00;93910.00;;;;10367816;28;45237;-60
2022/03/08 03:42:31;;;;;;;3.58;3.00;;;17.60;21.60;20.00;93911.00;;;;10365986;28;46052;-60
2022/03/08 03:47:32;;;;;;;3.75;2.92;;;17.60;21.70;20.00;93912.00;;;;10367818;28;45356;-59
2022/03/08 03:52:33;;;;;;;3.58;2.92;;;17.60;21.60;20.00;93912.00;;;;10368524;28;45366;-61
2022/03/08 03:57:33;;;;;;;3.45;2.75;;;17.60;21.60;20.00;93909.00;;;;10349195;28;47103;-60
2022/03/08 04:02:34;;;;;;;3.63;2.75;;;17.60;21.70;20.00;93933.00;;;;10350488;28;46860;-59
2022/03/08 04:07:35;;;;;;;3.42;2.85;;;17.60;21.50;20.00;93922.00;;;;10350149;28;47266;-60
2022/03/08 04:12:36;;;;;;;4.18;3.20;;;17.60;21.70;20.00;93929.00;;;;10367496;28;46097;-61
2022/03/08 04:17:37;;;;;;;3.78;2.90;;;17.60;21.50;20.00;93924.00;;;;10350803;28;47125;-59
2022/03/08 04:22:37;;;;;;;4.35;3.15;;;17.60;21.60;20.00;93944.00;;;;10368099;28;45934;-60
2022/03/08 04:27:38;;;;;;;3.28;2.92;;;17.60;21.60;20.00;93938.00;;;;10370875;28;45407;-60
2022/03/08 04:32:39;;;;;;;3.78;2.85;;;17.60;21.50;20.00;93933.00;;;;10375358;28;45284;-59
2022/03/08 04:37:40;;;;;;;4.57;2.83;;;17.60;21.40;20.00;93928.00;;;;10374351;28;45135;-60
2022/03/08 04:42:41;;;;;;;4.45;2.95;;;17.50;21.60;20.00;93927.00;;;;10356404;28;47237;-60
2022/03/08 04:47:42;;;;;;;4.50;3.45;;;17.60;21.70;20.00;93926.00;;;;10359228;28;46623;-60
2022/03/08 04:52:46;;;;;;;4.10;2.95;;;17.60;21.70;20.00;93938.00;;;;10357423;28;47849;-60
2022/03/08 04:57:47;;;;;;;5.15;3.20;;;17.60;21.50;20.00;93940.00;;;;10357171;28;45242;-59
2022/03/08 05:02:48;;;;;;;3.55;2.83;;;17.60;21.60;20.00;93940.00;;;;10355523;28;46817;-59
2022/03/08 05:07:49;;;;;;;4.40;3.00;;;17.60;21.50;20.00;93929.00;;;;10357338;28;45555;-60
2022/03/08 05:12:49;;;;;;;4.90;3.20;;;17.60;21.50;20.00;93924.00;;;;10358713;28;46360;-61
2022/03/08 05:17:50;;;;;;;3.22;2.83;;;17.60;21.60;20.00;93920.00;;;;10356313;28;46986;-61
2022/03/08 05:22:51;;;;;;;3.90;3.10;;;17.60;22.20;20.00;93921.00;;;;10356782;28;46672;-59
2022/03/08 05:27:52;;;;;;;3.95;2.65;;;17.60;21.70;20.10;93929.00;;;;10356199;28;46972;-59
2022/03/08 05:32:52;;;;;;;3.60;2.90;;;17.60;21.70;20.10;93925.00;;;;10373314;28;45508;-60
2022/03/08 05:37:53;;;;;;;4.07;2.83;;;17.60;21.60;20.10;93926.00;;;;10356825;28;45295;-59
2022/03/08 05:42:54;;;;;;;4.03;2.67;;;17.60;21.60;20.10;93920.00;;;;10355424;28;47116;-60
2022/03/08 05:47:54;;;;;;;4.32;2.97;;;17.70;21.60;20.10;93940.00;;;;10356442;28;46471;-60
2022/03/08 05:52:55;;;;;;;4.53;3.20;;;17.70;21.50;20.10;93933.00;;;;10372014;28;45298;-60
2022/03/08 05:57:56;;;;;;;3.78;2.88;;;17.70;22.00;20.10;93932.00;;;;10371798;28;45908;-60
2022/03/08 06:02:56;;;;;;;3.50;2.90;;;17.70;21.30;20.10;93938.00;;;;10371183;28;45308;-59
2022/03/08 06:07:57;;;;;;;4.28;3.08;;;17.60;21.20;20.10;93930.00;;;;10371479;28;46202;-59
2022/03/08 06:12:58;;;;;;;4.00;2.97;;;17.60;21.30;20.10;93932.00;;;;10371107;28;46064;-60
2022/03/08 06:17:59;;;;;;;3.78;2.90;;;17.60;21.40;20.10;93943.00;;;;10355478;28;45668;-59
2022/03/08 06:22:59;;;;;;;3.88;3.13;;;17.60;21.60;20.10;93957.00;;;;10369922;28;45504;-60
2022/03/08 06:28:00;;;;;;;3.47;2.92;;;17.70;21.60;20.10;93960.00;;;;10355725;28;45384;-60
2022/03/08 06:33:01;;;;;;;3.17;2.80;;;17.60;21.60;20.10;93952.00;;;;10354829;28;46969;-58
2022/03/08 06:38:01;;;;;;;3.60;2.92;;;17.60;21.60;20.10;93941.00;;;;10369571;28;45591;-60
2022/03/08 06:43:02;;;;;;;3.83;3.10;;;17.60;21.60;20.10;93968.00;;;;10353506;28;47916;-59
2022/03/08 06:48:03;;;;;;;4.10;3.20;;;17.70;21.60;20.10;93973.00;;;;10353000;28;46761;-60
2022/03/08 06:53:04;;;;;;;4.80;3.47;;;17.70;21.60;20.10;93967.00;;;;10370561;28;45520;-59
2022/03/08 06:58:05;;;;;;;4.65;3.28;;;17.70;21.50;20.10;93981.00;;;;10354081;28;45195;-59
2022/03/08 07:03:06;;;;;;;4.07;2.90;;;17.70;21.40;20.10;93987.00;;;;10363790;28;46101;-59
2022/03/08 07:08:07;;;;;;;4.07;3.30;;;17.60;21.50;20.10;93971.00;;;;10352320;28;45493;-60
2022/03/08 07:13:07;;;;;;;4.15;3.20;;;17.70;21.20;20.10;93968.00;;;;10354593;28;46475;-60
2022/03/08 07:18:08;;;;;;;4.68;3.30;;;17.60;21.40;20.10;93968.00;;;;10354163;28;45372;-60
2022/03/08 07:23:09;;;;;;;4.30;3.00;;;17.60;22.00;20.10;93977.00;;;;10354352;28;45269;-59
2022/03/08 07:28:09;;;;;;;4.35;3.30;;;17.60;21.50;20.10;93972.00;;;;10360607;28;45355;-59
2022/03/08 07:33:10;;;;;;;4.82;3.38;;;17.60;21.60;20.10;93966.00;;;;10312701;28;45475;-59
2022/03/08 07:38:11;;;;;;;4.38;2.88;;;17.70;21.60;20.10;93957.00;;;;10365098;23;46694;-62
2022/03/08 07:43:12;;;;;;;3.90;2.90;;;17.60;21.60;20.10;93966.00;;;;10361796;28;45378;-62
2022/03/08 07:48:12;;;;;;;4.70;2.90;;;17.60;21.40;20.00;93975.00;;;;10358432;28;45295;-62
2022/03/08 07:53:13;;;;;;;3.58;2.88;;;17.60;21.80;20.00;93971.00;;;;10351582;28;46103;-61
2022/03/08 07:58:14;;;;;;;5.97;3.20;;;17.50;21.70;20.00;93964.00;;;;10353035;28;45407;-63
2022/03/08 08:03:15;;;;;;;7.78;3.08;;;17.60;21.90;20.00;93978.00;;;;10355999;28;46373;-61
2022/03/08 08:08:16;;;;;;;4.70;2.95;;;17.50;21.80;20.00;93971.00;;;;10320476;28;45424;-62
2022/03/08 08:13:17;;;;;;;4.50;3.20;;;17.50;21.90;20.00;93979.00;;;;10312705;28;45269;-62
2022/03/08 08:18:18;;;;;;;5.50;3.55;;;17.50;22.00;20.00;93979.00;;;;10311801;28;45295;-63
2022/03/08 08:23:18;;;;;;;5.50;3.42;;;17.60;21.70;20.00;93967.00;;;;10310592;28;45282;-62
2022/03/08 08:28:19;;;;;;;3.75;3.20;;;17.50;21.50;20.00;93992.00;;;;10310073;28;46973;-62
2022/03/08 08:33:20;;;;;;;7.40;4.05;;;17.50;21.70;20.00;93981.00;;;;10310923;28;45589;-61
2022/03/08 08:38:21;;;;;;;8.82;4.13;;;17.60;21.80;20.00;94003.00;;;;10311111;28;46329;-60
2022/03/08 08:43:21;;;;;;;11.73;5.00;;;17.60;21.90;20.10;93979.00;;;;10310723;28;46988;-61
2022/03/08 08:48:23;;;;;;;9.25;4.38;;;17.70;22.00;20.10;93983.00;;;;10311909;28;45487;-61
2022/03/08 08:53:23;;;;;;;12.43;4.50;;;17.70;22.10;20.10;93999.00;;;;10310335;28;45457;-61
2022/03/08 08:58:24;;;;;;;10.05;4.47;;;17.70;22.20;20.10;93988.00;;;;10311240;28;45141;-62
2022/03/08 09:03:25;;;;;;;9.85;4.18;;;17.70;22.20;20.10;94003.00;;;;10310931;28;45294;-62
2022/03/08 09:08:25;;;;;;;7.82;4.07;;;17.70;22.30;20.10;93995.00;;;;10308892;28;47074;-62
2022/03/08 09:13:26;;;;;;;6.15;3.67;;;17.70;22.40;20.20;93997.00;;;;10314071;28;45453;-61
2022/03/08 09:18:27;;;;;;;5.82;3.30;;;17.70;22.60;20.20;93990.00;;;;10361950;28;46305;-61
2022/03/08 09:23:27;;;;;;;5.57;3.10;;;17.80;23.10;20.20;93991.00;;;;10393335;28;45540;-61
2022/03/08 09:28:28;;;;;;;5.28;3.10;;;17.80;23.60;20.20;93995.00;;;;10357792;28;46061;-60
2022/03/08 09:33:29;;;;;;;5.78;2.60;;;17.90;24.40;20.30;94000.00;;;;10375043;28;45276;-61
2022/03/08 09:38:29;;;;;;;4.00;2.60;;;17.90;25.10;20.30;94007.00;;;;10398091;28;46352;-62
2022/03/08 09:43:31;;;;;;;4.88;2.90;;;17.90;26.10;20.40;93997.00;;;;10397657;28;45310;-63
2022/03/08 09:48:32;;;;;;;5.22;3.05;;;18.00;26.90;20.40;93997.00;;;;10394894;28;46285;-60
2022/03/08 09:53:34;;;;;;;7.20;3.20;;;18.00;27.20;20.40;93986.00;;;;10356638;28;45296;-62
2022/03/08 09:58:37;;;;;;;5.35;2.70;;;18.00;27.80;20.40;93996.00;;;;10339305;28;46960;-61
2022/03/08 10:03:42;;;;;;;6.55;3.13;;;18.00;28.00;20.40;93984.00;;;;10356375;28;45221;-61
2022/03/08 10:08:42;;;;;;;7.40;3.40;;;18.00;28.20;20.50;93977.00;;;;10338957;28;47946;-62
2022/03/08 10:13:50;;;;;;;5.07;3.22;;;18.00;28.40;20.50;93988.00;;;;10355273;28;47152;-61
2022/03/08 10:18:54;;;;;;;7.70;2.60;;;18.00;28.70;20.40;93992.00;;;;10355262;28;46323;-62
2022/03/08 10:23:58;;;;;;;4.65;3.05;;;18.10;28.90;20.50;93988.00;;;;10368004;28;45314;-62
2022/03/08 10:28:59;;;;;;;4.97;2.65;;;18.10;29.00;20.40;93994.00;;;;10395406;28;46669;-62
2022/03/08 10:34:07;;;;;;;4.22;2.42;;;18.10;29.10;20.50;93964.00;;;;10395787;28;45325;-62
2022/03/08 10:39:16;;;;;;;4.07;2.55;;;18.00;29.30;20.50;93975.00;;;;10395074;28;45151;-62
2022/03/08 10:44:50;;;;;;;3.47;2.00;;;18.10;29.30;20.50;93964.00;;;;10355292;28;46641;-61
2022/03/08 10:49:59;;;;;;;4.07;2.45;;;18.10;29.40;20.50;93965.00;;;;10324398;28;45221;-63
2022/03/08 10:55:17;;;;;;;4.85;2.30;;;18.00;29.40;20.50;93987.00;;;;10332046;28;45239;-61
2022/03/08 11:00:20;;;;;;;3.53;2.45;;;18.00;29.50;20.50;93990.00;;;;10313128;28;45556;-61
2022/03/08 11:05:27;;;;;;;4.18;2.40;;;18.10;29.60;20.50;93992.00;;;;10312806;28;45318;-61
2022/03/08 11:10:29;;;;;;;3.80;2.30;;;18.10;29.60;20.50;93999.00;;;;10313814;28;45396;-62
2022/03/08 11:15:37;;;;;;;2.80;1.80;;;18.10;29.50;20.50;94001.00;;;;10312500;28;45576;-62
2022/03/08 11:20:42;;;;;;;4.07;2.10;;;18.10;29.60;20.50;93993.00;;;;10312540;28;45626;-62
2022/03/08 11:25:46;;;;;;;3.72;2.10;;;18.10;29.60;20.50;93996.00;;;;10364606;28;45171;-61
2022/03/08 11:30:57;;;;;;;2.67;2.00;;;18.10;29.60;20.50;93994.00;;;;10393526;28;45213;-61
2022/03/08 11:36:15;;;;;;;3.72;2.10;;;18.10;29.50;20.50;93986.00;;;;10392828;28;45175;-63
2022/03/08 11:41:25;;;;;;;3.58;2.10;;;18.10;29.40;20.50;93986.00;;;;10393211;28;46521;-62
2022/03/08 11:46:26;;;;;;;4.22;2.35;;;18.10;29.30;20.50;93984.00;;;;10393706;28;45199;-61
2022/03/08 11:51:29;;;;;;;3.70;2.17;;;18.00;29.30;20.50;93976.00;;;;10393676;28;47267;-62
2022/03/08 11:56:43;;;;;;;3.72;2.20;;;18.00;29.30;20.50;93960.00;;;;10392530;28;46440;-63
2022/03/08 12:01:44;;;;;;;6.85;2.10;;;18.10;29.20;20.50;93970.00;;;;10392595;28;45170;-61
2022/03/08 12:06:56;;;;;;;3.85;2.10;;;18.10;29.20;20.50;93964.00;;;;10392723;28;46281;-62
2022/03/08 12:11:56;;;;;;;2.97;1.98;;;18.10;29.10;20.50;93957.00;;;;10376771;28;46970;-61
2022/03/08 12:17:17;;;;;;;2.97;2.08;;;18.10;29.00;20.50;93949.00;;;;10389764;28;45504;-61
2022/03/08 12:22:21;;;;;;;3.10;1.92;;;18.10;28.90;20.50;93959.00;;;;10390536;28;45548;-61
2022/03/08 12:27:25;;;;;;;3.95;1.98;;;18.10;28.90;20.50;93941.00;;;;10386686;28;45294;-62
2022/03/08 12:32:34;;;;;;;4.75;2.00;;;18.10;28.90;20.50;93925.00;;;;10389407;28;47125;-61
2022/03/08 12:38:05;;;;;;;3.63;2.22;;;18.10;28.80;20.50;93926.00;;;;10389639;28;45509;-61
2022/03/08 12:43:11;;;;;;;3.58;2.17;;;18.10;28.70;20.60;93928.00;;;;10392828;28;45663;-61
2022/03/08 12:48:21;;;;;;;5.67;2.50;;;18.10;28.60;20.60;93912.00;;;;10379117;28;47184;-62
2022/03/08 12:53:30;;;;;;;4.13;2.03;;;18.10;28.60;20.60;93911.00;;;;10399160;28;45384;-62
2022/03/08 12:58:37;;;;;;;2.85;2.00;;;18.20;28.50;20.60;93912.00;;;;10398481;28;45988;-61
2022/03/08 13:03:43;;;;;;;3.50;2.17;;;18.20;28.50;20.60;93906.00;;;;10382165;28;47230;-61
2022/03/08 13:08:44;;;;;;;3.97;1.95;;;18.20;28.40;20.60;93927.00;;;;10398016;28;48648;-61
2022/03/08 13:13:45;;;;;;;4.90;2.00;;;18.20;28.40;20.60;93924.00;;;;10399048;28;45851;-62
2022/03/08 13:18:46;;;;;;;4.45;1.88;;;18.10;28.30;20.60;93930.00;;;;10399172;28;45632;-62
2022/03/08 13:23:48;;;;;;;3.17;1.95;;;18.20;28.30;20.60;93940.00;;;;10399652;28;45178;-61
2022/03/08 13:28:49;;;;;;;3.83;2.08;;;18.20;28.30;20.60;93930.00;;;;10397351;28;47174;-61
2022/03/08 13:33:52;;;;;;;4.10;2.00;;;18.20;28.30;20.60;93923.00;;;;10397605;28;47240;-61
2022/03/08 13:38:56;;;;;;;2.88;1.92;;;18.10;28.20;20.60;93930.00;;;;10397471;28;45635;-62
2022/03/08 13:44:04;;;;;;;3.88;1.80;;;18.20;28.10;20.60;93905.00;;;;10398821;28;46151;-61
2022/03/08 13:49:09;;;;;;;2.50;1.80;;;18.10;28.10;20.60;93925.00;;;;10396915;28;47291;-62
2022/03/08 13:54:10;;;;;;;3.00;1.85;;;18.20;28.00;20.60;93901.00;;;;10397575;28;45146;-62
2022/03/08 13:59:27;;;;;;;2.78;1.85;;;18.20;28.00;20.60;93924.00;;;;10379149;28;47357;-61
2022/03/08 14:04:28;;;;;;;3.88;1.83;;;18.20;28.00;20.70;93926.00;;;;10398098;28;45330;-63
2022/03/08 14:09:29;;;;;;;4.47;2.00;;;18.20;28.00;20.70;93927.00;;;;10397535;28;45464;-62
2022/03/08 14:14:31;;;;;;;2.95;1.90;;;18.20;27.90;20.70;93940.00;;;;10396329;28;45296;-62
2022/03/08 14:19:44;;;;;;;2.38;1.67;;;18.20;27.90;20.60;93945.00;;;;10396174;28;45351;-62
2022/03/08 14:25:00;;;;;;;3.80;1.95;;;18.20;27.80;20.60;93940.00;;;;10396347;28;45951;-62
2022/03/08 14:30:08;;;;;;;1.98;1.58;;;18.10;27.80;20.60;93931.00;;;;10395745;28;46139;-61
2022/03/08 14:35:13;;;;;;;2.80;1.65;;;18.20;27.80;20.60;93916.00;;;;10397350;28;46075;-61
2022/03/08 14:40:38;;;;;;;2.85;1.80;;;18.10;27.80;20.60;93943.00;;;;10395441;28;45885;-61
2022/03/08 14:45:39;;;;;;;3.40;2.05;;;18.10;27.80;20.60;93944.00;;;;10396972;28;45491;-62
2022/03/08 14:50:39;;;;;;;2.47;1.70;;;18.10;27.80;20.60;93939.00;;;;10356574;28;46400;-62
2022/03/08 14:55:40;;;;;;;2.35;1.67;;;18.10;27.80;20.60;93929.00;;;;10348484;28;46249;-61
2022/03/08 15:00:41;;;;;;;2.58;1.67;;;18.20;27.80;20.60;93953.00;;;;10341691;28;46123;-61
2022/03/08 15:05:41;;;;;;;2.28;1.45;;;18.10;27.70;20.60;93957.00;;;;10319146;28;45946;-61
2022/03/08 15:10:43;;;;;;;2.97;1.90;;;18.20;27.80;20.60;93953.00;;;;10369529;28;45647;-61
2022/03/08 15:15:44;;;;;;;3.05;1.50;;;18.20;27.70;20.60;93966.00;;;;10333702;28;45428;-62
2022/03/08 15:20:45;;;;;;;1.73;1.52;;;18.20;27.70;20.60;93952.00;;;;10329154;28;45565;-62
2022/03/08 15:25:46;;;;;;;2.03;1.50;;;18.20;27.70;20.60;93971.00;;;;10329466;28;45377;-61
2022/03/08 15:30:46;;;;;;;3.28;1.35;;;18.20;27.10;20.50;93957.00;;;;10328975;28;45383;-62
2022/03/08 15:35:47;;;;;;;2.78;1.48;;;18.10;27.10;20.60;93966.00;;;;10313679;28;45345;-74
2022/03/08 15:40:48;;;;;;;2.05;1.33;;;18.10;27.10;20.60;93965.00;;;;10328412;28;45362;-62
2022/03/08 15:45:48;;;;;;;2.67;1.63;;;18.20;27.00;20.60;93961.00;;;;10312975;28;45313;-62
2022/03/08 15:50:49;;;;;;;2.53;1.50;;;18.10;26.90;20.60;93980.00;;;;10328929;28;46649;-62
2022/03/08 15:55:50;;;;;;;5.32;1.80;;;18.20;26.80;20.60;93970.00;;;;10328474;28;45288;-61
2022/03/08 16:00:51;;;;;;;3.85;1.77;;;18.20;26.70;20.60;93970.00;;;;10313252;28;46498;-61
2022/03/08 16:05:52;;;;;;;2.60;1.65;;;18.20;26.70;20.70;93985.00;;;;10328146;28;45330;-61
2022/03/08 16:10:54;;;;;;;1.85;1.42;;;18.20;26.60;20.70;93996.00;;;;10328558;28;46609;-63
2022/03/08 16:15:55;;;;;;;4.13;1.90;;;18.30;26.60;20.70;93986.00;;;;10327218;28;45213;-62
2022/03/08 16:20:56;;;;;;;5.20;2.38;;;18.20;26.50;20.70;93987.00;;;;10315857;28;46987;-62
2022/03/08 16:25:57;;;;;;;7.10;2.97;;;18.30;26.50;20.70;93985.00;;;;10326037;28;45700;-61
2022/03/08 16:30:58;;;;;;;8.13;3.25;;;18.20;26.40;20.70;94001.00;;;;10324251;28;48119;-62
2022/03/08 16:35:59;;;;;;;7.07;3.15;;;18.20;26.40;20.70;94005.00;;;;10325669;28;45975;-61
2022/03/08 16:41:00;;;;;;;7.80;3.53;;;18.20;26.40;20.70;94003.00;;;;10340558;28;45254;-61
2022/03/08 16:46:01;;;;;;;8.85;3.78;;;18.20;27.00;20.70;94013.00;;;;10325584;28;46304;-62
2022/03/08 16:51:02;;;;;;;8.88;3.80;;;18.20;26.50;20.60;94013.00;;;;10324054;28;47975;-62
2022/03/08 16:56:03;;;;;;;10.20;4.15;;;18.20;26.50;20.70;94023.00;;;;10340445;28;46607;-62
2022/03/08 17:01:05;;;;;;;10.98;4.22;;;18.20;26.50;20.60;94016.00;;;;10337410;28;46445;-62
2022/03/08 17:06:05;;;;;;;9.52;4.35;;;18.20;26.50;20.60;94022.00;;;;10336202;28;45446;-62
2022/03/08 17:11:06;;;;;;;9.45;4.35;;;18.20;26.50;20.60;94035.00;;;;10339987;28;46501;-62
2022/03/08 17:16:07;;;;;;;12.23;4.80;;;18.10;27.00;20.60;94035.00;;;;10340015;28;46315;-61
2022/03/08 17:21:08;;;;;;;13.52;5.07;;;18.20;26.50;20.60;94033.00;;;;10320606;28;47160;-61
2022/03/08 17:26:09;;;;;;;9.85;4.32;;;18.10;26.50;20.60;94036.00;;;;10319899;28;45396;-61
2022/03/08 17:31:09;;;;;;;11.07;4.03;;;18.20;26.50;20.60;94040.00;;;;10339336;28;45194;-61
2022/03/08 17:36:10;;;;;;;10.52;4.22;;;18.20;26.50;20.60;94042.00;;;;10317271;28;45710;-62
2022/03/08 17:41:12;;;;;;;7.88;3.42;;;18.20;26.50;20.60;94047.00;;;;10317378;28;45228;-62
2022/03/08 17:46:13;;;;;;;9.07;3.72;;;18.20;26.50;20.60;94042.00;;;;10331759;28;45479;-62
2022/03/08 17:51:14;;;;;;;7.93;3.42;;;18.20;26.50;20.60;94038.00;;;;10332647;28;45270;-62
2022/03/08 17:56:15;;;;;;;9.13;3.75;;;18.10;26.50;20.60;94031.00;;;;10314609;28;47442;-62
2022/03/08 18:01:16;;;;;;;6.25;2.70;;;18.20;26.40;20.50;94047.00;;;;10327508;28;46335;-61
2022/03/08 18:06:17;;;;;;;6.22;3.05;;;18.20;26.40;20.60;94045.00;;;;10328802;28;46278;-61
2022/03/08 18:11:18;;;;;;;8.20;3.05;;;18.10;26.40;20.60;94044.00;;;;10331618;28;46402;-61
2022/03/08 18:16:19;;;;;;;6.10;2.95;;;18.20;26.40;20.60;94051.00;;;;10313545;28;47758;-60
2022/03/08 18:21:20;;;;;;;5.60;2.90;;;18.10;26.40;20.60;94056.00;;;;10315726;28;46460;-61
2022/03/08 18:26:20;;;;;;;4.85;2.60;;;18.10;26.40;20.60;94044.00;;;;10330517;28;46459;-62
2022/03/08 18:31:21;;;;;;;4.63;2.40;;;18.10;26.40;20.60;94066.00;;;;10313578;28;46965;-62
2022/03/08 18:36:21;;;;;;;5.10;2.70;;;18.10;26.40;20.60;94055.00;;;;10314315;28;45166;-59
2022/03/08 18:41:24;;;;;;;4.57;2.75;;;18.10;26.40;20.60;94062.00;;;;10315456;28;45294;-60
2022/03/08 18:46:24;;;;;;;4.05;2.55;;;18.10;26.40;20.60;94059.00;;;;10311946;28;48373;-61
2022/03/08 18:51:25;;;;;;;3.53;2.28;;;18.10;26.40;20.60;94076.00;;;;10313471;28;47279;-61
2022/03/08 18:56:27;;;;;;;4.85;2.70;;;18.10;26.40;20.60;94079.00;;;;10313458;28;45445;-59
2022/03/08 19:01:29;;;;;;;5.63;2.60;;;18.10;26.40;20.60;94070.00;;;;10314255;28;46079;-59
2022/03/08 19:06:30;;;;;;;2.65;2.08;;;18.10;26.40;20.60;94081.00;;;;10312895;28;48005;-61
2022/03/08 19:11:31;;;;;;;3.15;1.95;;;18.10;26.40;20.60;94090.00;;;;10329303;28;45146;-60
2022/03/08 19:16:32;;;;;;;4.43;2.20;;;18.10;26.40;20.60;94091.00;;;;10329000;28;45227;-62
2022/03/08 19:21:32;;;;;;;3.28;2.17;;;18.10;26.40;20.60;94089.00;;;;10329205;28;45246;-60
2022/03/08 19:26:33;;;;;;;3.30;1.95;;;18.10;26.40;20.60;94079.00;;;;10312973;28;45385;-61
2022/03/08 19:31:34;;;;;;;3.50;2.08;;;18.10;26.40;20.60;94083.00;;;;10328953;28;46269;-60
2022/03/08 19:36:34;;;;;;;2.63;1.88;;;18.10;26.40;20.60;94078.00;;;;10337296;23;47112;-61
2022/03/08 19:41:35;;;;;;;3.33;2.05;;;18.10;26.40;20.50;94085.00;;;;10310879;28;47044;-63
2022/03/08 19:46:36;;;;;;;4.18;2.10;;;18.10;26.40;20.50;94082.00;;;;10337961;28;46290;-59
2022/03/08 19:51:37;;;;;;;2.92;1.98;;;18.10;26.40;20.50;94073.00;;;;10289162;28;45524;-60
2022/03/08 19:56:38;;;;;;;3.38;1.75;;;18.10;26.40;20.50;94094.00;;;;10286160;28;45346;-60
2022/03/08 20:01:38;;;;;;;3.65;1.98;;;18.10;26.40;20.50;94086.00;;;;10268798;28;45360;-60
2022/03/08 20:06:39;;;;;;;3.92;1.90;;;18.10;26.40;20.50;94077.00;;;;10286150;28;45545;-60
2022/03/08 20:11:40;;;;;;;3.03;1.70;;;18.10;26.40;20.50;94097.00;;;;10280894;28;46327;-60
2022/03/08 20:16:42;;;;;;;2.33;1.83;;;18.10;26.40;20.50;94089.00;;;;10267905;28;47298;-58
2022/03/08 20:21:43;;;;;;;2.67;1.60;;;18.10;26.40;20.50;94083.00;;;;10284221;28;45189;-58
2022/03/08 20:26:43;;;;;;;3.38;1.80;;;18.10;26.40;20.50;94103.00;;;;10269223;28;45317;-60
2022/03/08 20:31:44;;;;;;;3.22;1.80;;;18.10;26.40;20.50;94096.00;;;;10267479;28;45154;-60
2022/03/08 20:36:49;;;;;;;2.85;1.38;;;18.00;26.40;20.50;94083.00;;;;10282478;28;45168;-58
2022/03/08 20:41:50;;;;;;;2.20;1.40;;;18.10;26.40;20.50;94078.00;;;;10269290;28;45293;-59
2022/03/08 20:46:51;;;;;;;3.75;1.70;;;18.00;26.40;20.50;94096.00;;;;10283434;28;45264;-60
2022/03/08 20:51:52;;;;;;;2.22;1.50;;;18.10;26.40;20.50;94083.00;;;;10268771;28;48391;-59
2022/03/08 20:56:52;;;;;;;3.38;1.80;;;18.10;26.40;20.50;94086.00;;;;10266440;28;46413;-59
2022/03/08 21:01:53;;;;;;;3.13;1.40;;;18.10;26.40;20.50;94088.00;;;;10284957;28;45443;-60
2022/03/08 21:06:54;;;;;;;1.88;1.33;;;18.00;26.40;20.50;94073.00;;;;10270050;28;45292;-60
2022/03/08 21:11:55;;;;;;;1.98;1.40;;;18.00;26.30;20.50;94088.00;;;;10290910;28;45466;-59
2022/03/08 21:16:56;;;;;;;3.30;1.60;;;18.00;26.30;20.50;94090.00;;;;10271873;28;45524;-60
2022/03/08 21:21:57;;;;;;;2.53;1.40;;;18.00;26.30;20.50;94094.00;;;;10286958;28;46578;-59
2022/03/08 21:26:58;;;;;;;2.30;1.40;;;18.00;26.30;20.50;94095.00;;;;10287388;28;45361;-59
2022/03/08 21:31:59;;;;;;;2.17;1.40;;;18.00;26.30;20.50;94098.00;;;;10292584;28;45676;-60
2022/03/08 21:36:59;;;;;;;2.28;1.50;;;18.00;26.30;20.50;94096.00;;;;10275010;28;47366;-59
2022/03/08 21:42:00;;;;;;;2.35;1.60;;;18.00;26.30;20.40;94107.00;;;;10292099;28;45266;-60
2022/03/08 21:47:01;;;;;;;2.08;1.40;;;18.00;26.20;20.40;94098.00;;;;10291323;28;45373;-60
2022/03/08 21:52:02;;;;;;;2.70;1.60;;;18.00;26.20;20.40;94102.00;;;;10292035;28;45414;-60
2022/03/08 21:57:03;;;;;;;2.05;1.50;;;18.00;26.20;20.40;94109.00;;;;10274589;28;47091;-60
2022/03/08 22:02:05;;;;;;;2.22;1.55;;;18.00;26.10;20.40;94119.00;;;;10291338;28;46633;-59
2022/03/08 22:07:06;;;;;;;1.73;1.50;;;17.90;26.00;20.40;94111.00;;;;10274391;28;47869;-60